
Distance (Route):
Temperature : -4.7°C
Humidity : 91.8%
Pressure : 638.1hPa| Receiver | Frames | First received | Last received |
|---|---|---|---|
| SP4MAZ | 244 | 2026-09-03 23:27:11 | 2026-09-04 01:23:16 |
| SP3WXH-11 | 91 | 2026-09-03 23:47:18 | 2026-09-04 00:37:28 |
| SP3BTT-10 | 6 | 2026-09-04 00:30:06 | 2026-09-04 00:36:06 |
| SQ9EZE-14 | 5 | 2026-09-03 23:58:40 | 2026-09-04 00:20:24 |
| SONDE2-11 | 3 | 2026-09-04 00:36:02 | 2026-09-04 00:37:35 |
| Receiver | Date | Latitude | Longitude | Direction | Speed | Altitude | Climb | Temperature | Humidity | Pressure | Voltage | Killtimer | Uptime | BKT | XDATA |
|---|---|---|---|---|---|---|---|---|---|---|---|---|---|---|---|
| SP4MAZ | 2026-09-04 01:23:16 | 51.79721 | 22.18158 | 105° | 31km/h | 3833m | -8.4m/s | -4.7°C | 91.8% | 638.1hPa | 0V | 00:00:00 | 00:00:00 | 00:00:00 | |
| SP4MAZ | 2026-09-04 01:22:54 | 51.79768 | 22.17885 | 105° | 35km/h | 4045m | -11.7m/s | -5.1°C | 54.3% | 621.4hPa | 0V | 00:00:00 | 00:00:00 | 00:00:00 | |
| SP4MAZ | 2026-09-04 01:22:34 | 51.79813 | 22.17556 | 100° | 44km/h | 4254m | -10.4m/s | -6.0°C | 21.4% | 604.9hPa | 0V | 08:26:00 | 00:00:00 | 00:00:00 | |
| SP4MAZ | 2026-09-04 01:22:09 | 51.79853 | 22.17152 | 100° | 40km/h | 4495m | -8.4m/s | -7.3°C | 38.1% | 586.4hPa | 0V | 00:00:00 | 00:00:00 | 00:00:00 | |
| SP4MAZ | 2026-09-04 01:21:37 | 51.79953 | 22.16620 | 112° | 44km/h | 4811m | -11.0m/s | -9.0°C | 31.9% | 563.1hPa | 0V | 00:00:00 | 00:00:00 | 00:00:00 | |
| SP4MAZ | 2026-09-04 01:21:16 | 51.80065 | 22.16242 | 117° | 47km/h | 5027m | -11.1m/s | -10.4°C | 13.1% | 547.4hPa | 0V | 00:00:00 | 00:00:00 | 00:00:00 | |
| SP4MAZ | 2026-09-04 01:20:56 | 51.80167 | 22.15886 | 114° | 49km/h | 5242m | -10.9m/s | -12.1°C | 12.7% | 532.5hPa | 0V | 00:00:00 | 00:00:00 | 00:00:00 | |
| SP4MAZ | 2026-09-04 01:20:27 | 51.80295 | 22.15308 | 107° | 53km/h | 5529m | -8.9m/s | -14.4°C | 26.3% | 512.6hPa | 0V | 00:00:00 | 00:00:00 | 00:00:00 | |
| SP4MAZ | 2026-09-04 01:20:04 | 51.80379 | 22.14836 | 106° | 53km/h | 5756m | -11.2m/s | -16.6°C | 36.2% | 497.4hPa | 0V | 00:00:00 | 00:00:00 | 00:00:00 | |
| SP4MAZ | 2026-09-04 01:19:43 | 51.80451 | 22.14421 | 105° | 57km/h | 5952m | -9.7m/s | -18.3°C | 32.0% | 484.8hPa | 0V | 00:00:00 | 00:00:00 | 00:00:00 | |
| SP4MAZ | 2026-09-04 01:19:13 | 51.80540 | 22.13710 | 102° | 58km/h | 6239m | -10.2m/s | -20.7°C | 28.4% | 466.3hPa | 0V | 00:00:00 | 00:00:00 | 00:00:00 | |
| SP4MAZ | 2026-09-04 01:18:47 | 51.80642 | 22.13114 | 110° | 68km/h | 6465m | -12.4m/s | -22.4°C | 16.3% | 450.2hPa | 0V | 00:00:00 | 00:00:00 | 00:00:00 | |
| SP4MAZ | 2026-09-04 01:18:16 | 51.80853 | 22.12381 | 122° | 66km/h | 6785m | -10.0m/s | -23.3°C | 6.7% | 433.1hPa | 0V | 00:00:00 | 00:00:00 | 00:00:00 | |
| SP4MAZ | 2026-09-04 01:17:53 | 51.81065 | 22.11873 | 126° | 69km/h | 7022m | -10.4m/s | -25.2°C | 14.2% | 419.4hPa | 0V | 00:00:00 | 00:00:00 | 00:00:00 | |
| SP4MAZ | 2026-09-04 01:17:25 | 47.96023 | -1.37661 | 0° | 0km/h | 11751m | 0.0m/s | -27.3°C | 9.1% | 403.3hPa | 0V | 00:00:00 | 00:00:00 | 00:00:00 | |
| SP4MAZ | 2026-09-04 01:17:06 | 52.31627 | -2.45637 | 0° | 0km/h | 13351m | 0.0m/s | -28.8°C | 8.2% | 392.2hPa | 0V | 00:00:00 | 00:00:00 | 00:00:00 | |
| SP4MAZ | 2026-09-04 01:16:43 | 46.51590 | 22.41512 | 0° | 0km/h | 11213m | 0.0m/s | -30.6°C | 9.7% | 380.5hPa | 0V | 00:00:00 | 00:00:00 | 00:00:00 | |
| SP4MAZ | 2026-09-04 01:16:14 | 43.68605 | 10.93095 | 0° | 0km/h | 10157m | 0.0m/s | -33.1°C | 11.4% | 365.0hPa | 0V | 00:00:00 | 00:00:00 | 00:00:00 | |
| SP4MAZ | 2026-09-04 01:15:49 | 31.95450 | 29.58804 | 0° | 0km/h | 5954m | 0.0m/s | -34.3°C | 67.0% | 352.5hPa | 0V | 00:00:00 | 00:00:00 | 00:00:00 | |
| SP4MAZ | 2026-09-04 01:15:18 | 31.02499 | 30.07058 | 0° | 0km/h | 5646m | 0.0m/s | -36.0°C | 77.4% | 339.2hPa | 0V | 00:00:00 | 00:00:00 | 00:00:00 | |
| SP4MAZ | 2026-09-04 01:14:56 | 34.01637 | 32.15628 | 0° | 0km/h | 6654m | 0.0m/s | -37.4°C | 63.6% | 328.7hPa | 0V | 00:00:00 | 00:00:00 | 00:00:00 | |
| SP4MAZ | 2026-09-04 01:14:27 | 31.67937 | 42.75637 | 0° | 0km/h | 5862m | 0.0m/s | -38.9°C | 40.0% | 314.3hPa | 0V | 00:00:00 | 00:00:00 | 00:00:00 | |
| SP4MAZ | 2026-09-04 01:14:07 | 21.72145 | 23.28092 | 0° | 0km/h | 2908m | 0.0m/s | -39.5°C | 51.7% | 306.4hPa | 0V | 00:00:00 | 00:00:00 | 00:00:00 | |
| SP4MAZ | 2026-09-04 01:13:47 | 21.59064 | 22.27666 | 0° | 0km/h | 2875m | 0.0m/s | -40.5°C | 61.3% | 298.3hPa | 0V | 00:00:00 | 00:00:00 | 00:00:00 | |
| SP4MAZ | 2026-09-04 01:13:27 | 21.74747 | 23.67148 | 0° | 0km/h | 2914m | 0.0m/s | -41.9°C | 69.3% | 289.9hPa | 0V | 00:00:00 | 00:00:00 | 00:00:00 | |
| SP4MAZ | 2026-09-04 01:13:05 | 21.47060 | 21.22608 | 0° | 0km/h | 2844m | 0.0m/s | -43.4°C | 72.8% | 280.9hPa | 0V | 00:00:00 | 00:00:00 | 00:00:00 | |
| SP4MAZ | 2026-09-04 01:12:45 | 21.72090 | 23.65261 | 0° | 0km/h | 2908m | 0.0m/s | -44.8°C | 72.9% | 272.7hPa | 0V | 00:00:00 | 00:00:00 | 00:00:00 | |
| SP4MAZ | 2026-09-04 01:12:12 | 21.64956 | 23.02703 | 0° | 0km/h | 2890m | 0.0m/s | -48.0°C | 73.8% | 258.3hPa | 0V | 00:00:00 | 00:00:00 | 00:00:00 | |
| SP4MAZ | 2026-09-04 01:11:52 | 21.66945 | 23.38978 | 0° | 0km/h | 2895m | 0.0m/s | -50.4°C | 69.5% | 248.1hPa | 0V | 00:00:00 | 00:00:00 | 00:00:00 | |
| SP4MAZ | 2026-09-04 01:11:29 | 21.60381 | 22.60233 | 0° | 0km/h | 2878m | 0.0m/s | -52.9°C | 56.9% | 236.5hPa | 0V | 00:00:00 | 00:00:00 | 00:00:00 | |
| SP4MAZ | 2026-09-04 01:10:59 | 21.61581 | 22.93086 | 0° | 0km/h | 2881m | 0.0m/s | -57.0°C | 47.2% | 220.3hPa | 0V | 00:00:00 | 00:00:00 | 00:00:00 | |
| SP4MAZ | 2026-09-04 01:10:37 | 26.24872 | 14.77826 | 0° | 0km/h | 4155m | 0.0m/s | -58.4°C | 32.9% | 209.9hPa | 0V | 00:00:00 | 00:00:00 | 00:00:00 | |
| SP4MAZ | 2026-09-04 01:10:17 | 21.58473 | 22.57001 | 0° | 0km/h | 2873m | 0.0m/s | -59.9°C | 15.9% | 201.4hPa | 0V | 00:00:00 | 00:00:00 | 00:00:00 | |
| SP4MAZ | 2026-09-04 01:09:57 | 21.59224 | 22.93372 | 0° | 0km/h | 2875m | 0.0m/s | -56.2°C | 3.8% | 194.0hPa | 0V | 00:00:00 | 00:00:00 | 00:00:00 | |
| SP4MAZ | 2026-09-04 01:09:05 | 27.49194 | 0.21800 | 0° | 0km/h | 4527m | 0.0m/s | -52.1°C | 1.7% | 175.3hPa | 0V | 00:00:00 | 00:00:00 | 00:00:00 | |
| SP4MAZ | 2026-09-04 01:08:45 | 27.59752 | 0.18501 | 0° | 0km/h | 4559m | 0.0m/s | -51.9°C | 1.6% | 168.8hPa | 0V | 00:00:00 | 00:00:00 | 00:00:00 | |
| SP4MAZ | 2026-09-04 01:08:22 | 27.20721 | 0.47683 | 0° | 0km/h | 4441m | 0.0m/s | -53.1°C | 1.7% | 160.2hPa | 0V | 00:00:00 | 00:00:00 | 00:00:00 | |
| SP4MAZ | 2026-09-04 01:07:59 | 29.86522 | -1.21348 | 0° | 0km/h | 5269m | 0.0m/s | -52.8°C | 1.5% | 152.2hPa | 0V | 00:00:00 | 00:00:00 | 00:00:00 | |
| SP4MAZ | 2026-09-04 01:07:28 | 32.15268 | -1.80006 | 0° | 0km/h | 6020m | 0.0m/s | -53.7°C | 1.5% | 144.1hPa | 0V | 00:00:00 | 00:00:00 | 00:00:00 | |
| SP4MAZ | 2026-09-04 01:07:05 | 32.15268 | -1.80006 | 0° | 0km/h | 6020m | 0.0m/s | -52.4°C | 1.4% | 137.9hPa | 0V | 00:00:00 | 00:00:00 | 00:00:00 | |
| SP4MAZ | 2026-09-04 01:06:15 | 32.15268 | -1.80006 | 0° | 0km/h | 6020m | 0.0m/s | -52.6°C | 1.2% | 125.4hPa | 0V | 00:00:00 | 00:00:00 | 00:00:00 | |
| SP4MAZ | 2026-09-04 01:05:54 | 32.15268 | -1.80006 | 0° | 0km/h | 6020m | 0.0m/s | -51.9°C | 1.1% | 120.3hPa | 0V | 00:00:00 | 00:00:00 | 00:00:00 | |
| SP4MAZ | 2026-09-04 01:05:31 | 32.15268 | -1.80006 | 0° | 0km/h | 6020m | 0.0m/s | -51.4°C | 1.1% | 115.3hPa | 0V | 00:00:00 | 00:00:00 | 00:00:00 | |
| SP4MAZ | 2026-09-04 01:05:10 | 32.15268 | -1.80006 | 0° | 0km/h | 6020m | 0.0m/s | -52.3°C | 1.1% | 110.5hPa | 0V | 00:00:00 | 00:00:00 | 00:00:00 | |
| SP4MAZ | 2026-09-04 01:04:36 | 32.15268 | -1.80006 | 0° | 0km/h | 6020m | 0.0m/s | -51.6°C | 1.0% | 103.0hPa | 0V | 00:00:00 | 00:00:00 | 00:00:00 | |
| SP4MAZ | 2026-09-04 01:04:13 | 32.15268 | -1.80006 | 0° | 0km/h | 6020m | 0.0m/s | -52.3°C | 1.1% | 98.0hPa | 0V | 00:00:00 | 00:00:00 | 00:00:00 | |
| SP4MAZ | 2026-09-04 01:03:53 | 32.15268 | -1.80006 | 0° | 0km/h | 6020m | 0.0m/s | -51.0°C | 0.9% | 93.8hPa | 0V | 00:00:00 | 00:00:00 | 00:00:00 | |
| SP4MAZ | 2026-09-04 01:03:19 | 32.15268 | -1.80006 | 0° | 0km/h | 6020m | 0.0m/s | -51.9°C | 1.0% | 87.3hPa | 0V | 00:00:00 | 00:00:00 | 00:00:00 | |
| SP4MAZ | 2026-09-04 01:02:59 | 32.15268 | -1.80006 | 0° | 0km/h | 6020m | 0.0m/s | -52.0°C | 1.0% | 83.6hPa | 0V | 00:00:00 | 00:00:00 | 00:00:00 | |
| SP4MAZ | 2026-09-04 01:02:39 | 32.15268 | -1.80006 | 0° | 0km/h | 6020m | 0.0m/s | -52.9°C | 1.0% | 80.0hPa | 0V | 00:00:00 | 00:00:00 | 00:00:00 | |
| SP4MAZ | 2026-09-04 01:02:15 | 32.15268 | -1.80006 | 0° | 0km/h | 6020m | 0.0m/s | -52.5°C | 1.0% | 75.8hPa | 0V | 00:00:00 | 00:00:00 | 00:00:00 | |
| SP4MAZ | 2026-09-04 01:01:54 | 32.15268 | -1.80006 | 0° | 0km/h | 6020m | 0.0m/s | -51.7°C | 0.9% | 72.2hPa | 0V | 00:00:00 | 00:00:00 | 00:00:00 | |
| SP4MAZ | 2026-09-04 01:01:21 | 32.15268 | -1.80006 | 0° | 0km/h | 6020m | 0.0m/s | -52.5°C | 1.0% | 67.0hPa | 0V | 00:00:00 | 00:00:00 | 00:00:00 | |
| SP4MAZ | 2026-09-04 01:01:00 | 32.15268 | -1.80006 | 0° | 0km/h | 6020m | 0.0m/s | -53.7°C | 1.0% | 63.9hPa | 0V | 00:00:00 | 00:00:00 | 00:00:00 | |
| SP4MAZ | 2026-09-04 01:00:38 | 32.15268 | -1.80006 | 0° | 0km/h | 6020m | 0.0m/s | -53.5°C | 1.0% | 60.6hPa | 0V | 00:00:00 | 00:00:00 | 00:00:00 | |
| SP4MAZ | 2026-09-04 00:59:49 | 32.15268 | -1.80006 | 0° | 0km/h | 6020m | 0.0m/s | -51.3°C | 0.8% | 54.1hPa | 0V | 00:00:00 | 00:00:00 | 00:00:00 | |
| SP4MAZ | 2026-09-04 00:59:29 | 32.15268 | -1.80006 | 0° | 0km/h | 6020m | 0.0m/s | -52.9°C | 0.9% | 51.5hPa | 0V | 00:00:00 | 00:00:00 | 00:00:00 | |
| SP4MAZ | 2026-09-04 00:59:06 | 32.15268 | -1.80006 | 0° | 0km/h | 6020m | 0.0m/s | -53.1°C | 0.9% | 48.5hPa | 0V | 00:00:00 | 00:00:00 | 00:00:00 | |
| SP4MAZ | 2026-09-04 00:58:43 | 32.15268 | -1.80006 | 0° | 0km/h | 6020m | 0.0m/s | -52.5°C | 0.9% | 45.5hPa | 0V | 00:00:00 | 00:00:00 | 00:00:00 | |
| SP4MAZ | 2026-09-04 00:58:12 | 41.24801 | 26.67649 | 0° | 0km/h | 9252m | 0.0m/s | -53.7°C | 0.9% | 41.8hPa | 0V | 00:00:00 | 00:00:00 | 00:00:00 | |
| SP4MAZ | 2026-09-04 00:57:51 | 41.39033 | 26.55870 | 0° | 0km/h | 9305m | 0.0m/s | -53.7°C | 0.9% | 39.3hPa | 0V | 00:00:00 | 00:00:00 | 00:00:00 | |
| SP4MAZ | 2026-09-04 00:57:27 | 41.61695 | 26.33849 | 0° | 0km/h | 9388m | 0.0m/s | -53.2°C | 0.9% | 36.6hPa | 0V | 00:00:00 | 00:00:00 | 00:00:00 | |
| SP4MAZ | 2026-09-04 00:56:37 | 41.99878 | 26.00271 | 0° | 0km/h | 9530m | 0.0m/s | -52.3°C | 0.8% | 31.0hPa | 0V | 00:00:00 | 00:00:00 | 00:00:00 | |
| SP4MAZ | 2026-09-04 00:56:16 | 41.84505 | 26.17273 | 0° | 0km/h | 9473m | 0.0m/s | -50.7°C | 0.7% | 28.8hPa | 0V | 00:00:00 | 00:00:00 | 00:00:00 | |
| SP4MAZ | 2026-09-04 00:55:56 | 34.73591 | 25.22218 | 0° | 0km/h | 6904m | 0.0m/s | -50.6°C | 0.7% | 26.8hPa | 0V | 00:00:00 | 00:00:00 | 00:00:00 | |
| SP4MAZ | 2026-09-04 00:55:35 | 34.73591 | 25.22218 | 0° | 0km/h | 6904m | 0.0m/s | -50.7°C | 0.7% | 24.8hPa | 0V | 00:00:00 | 00:00:00 | 00:00:00 | |
| SP4MAZ | 2026-09-04 00:54:25 | 34.73591 | 25.22218 | 0° | 0km/h | 6904m | 0.0m/s | -49.2°C | 0.6% | 19.0hPa | 0V | 00:00:00 | 00:00:00 | 00:00:00 | |
| SP4MAZ | 2026-09-04 00:54:04 | 34.73591 | 25.22218 | 0° | 0km/h | 6904m | 0.0m/s | -48.5°C | 0.6% | 17.6hPa | 0V | 00:00:00 | 00:00:00 | 00:00:00 | |
| SP4MAZ | 2026-09-04 00:53:40 | 34.73591 | 25.22218 | 0° | 0km/h | 6904m | 0.0m/s | -46.3°C | 0.5% | 16.0hPa | 0V | 00:00:00 | 00:00:00 | 00:00:00 | |
| SP4MAZ | 2026-09-04 00:53:19 | 34.73591 | 25.22218 | 0° | 0km/h | 6904m | 0.0m/s | -44.1°C | 0.4% | 14.7hPa | 0V | 00:00:00 | 00:00:00 | 00:00:00 | |
| SP4MAZ | 2026-09-04 00:52:49 | 34.73591 | 25.22218 | 0° | 0km/h | 6904m | 0.0m/s | -43.3°C | 0.4% | 13.0hPa | 0V | 00:00:00 | 00:00:00 | 00:00:00 | |
| SP4MAZ | 2026-09-04 00:52:27 | 34.73591 | 25.22218 | 0° | 0km/h | 6904m | 0.0m/s | -41.9°C | 0.4% | 11.6hPa | 0V | 00:00:00 | 00:00:00 | 00:00:00 | |
| SP4MAZ | 2026-09-04 00:51:44 | 34.73591 | 25.22218 | 0° | 0km/h | 6904m | 0.0m/s | -40.0°C | 0.3% | 9.7hPa | 0V | 00:00:00 | 00:00:00 | 00:00:00 | |
| SP4MAZ | 2026-09-04 00:50:32 | 34.73591 | 25.22218 | 0° | 0km/h | 6904m | 0.0m/s | -40.7°C | 0.4% | 8.7hPa | 0V | 00:00:00 | 00:00:00 | 00:00:00 | |
| SP4MAZ | 2026-09-04 00:50:09 | 34.73591 | 25.22218 | 0° | 0km/h | 6904m | 0.0m/s | -40.5°C | 0.3% | 8.9hPa | 0V | 00:00:00 | 00:00:00 | 00:00:00 | |
| SP4MAZ | 2026-09-04 00:49:20 | 34.73591 | 25.22218 | 0° | 0km/h | 6904m | 0.0m/s | -40.4°C | 0.4% | 9.3hPa | 0V | 00:00:00 | 00:00:00 | 00:00:00 | |
| SP4MAZ | 2026-09-04 00:49:00 | 34.73591 | 25.22218 | 0° | 0km/h | 6904m | 0.0m/s | -40.5°C | 0.4% | 9.5hPa | 0V | 00:00:00 | 00:00:00 | 00:00:00 | |
| SP4MAZ | 2026-09-04 00:48:39 | 34.73591 | 25.22218 | 0° | 0km/h | 6904m | 0.0m/s | -40.4°C | 0.4% | 9.7hPa | 0V | 00:00:00 | 00:00:00 | 00:00:00 | |
| SP4MAZ | 2026-09-04 00:48:18 | 34.73591 | 25.22218 | 0° | 0km/h | 6904m | 0.0m/s | -40.3°C | 0.4% | 9.9hPa | 0V | 00:00:00 | 00:00:00 | 00:00:00 | |
| SP4MAZ | 2026-09-04 00:47:28 | -1.98708 | 40.23984 | 0° | 0km/h | 26m | 0.0m/s | -40.4°C | 0.4% | 10.4hPa | 0V | 00:00:00 | 00:00:00 | 00:00:00 | |
| SP4MAZ | 2026-09-04 00:47:05 | 45.08489 | 22.88223 | 0° | 0km/h | 10679m | 0.0m/s | -40.6°C | 0.4% | 10.7hPa | 0V | 00:00:00 | 00:00:00 | 00:00:00 | |
| SP4MAZ | 2026-09-04 00:46:11 | 45.08489 | 22.88223 | 0° | 0km/h | 10679m | 0.0m/s | -42.1°C | 0.4% | 11.2hPa | 0V | 00:00:00 | 00:00:00 | 00:00:00 | |
| SP4MAZ | 2026-09-04 00:45:50 | 45.08489 | 22.88223 | 0° | 0km/h | 10679m | 0.0m/s | -42.3°C | 0.4% | 11.5hPa | 0V | 00:00:00 | 00:00:00 | 00:00:00 | |
| SP4MAZ | 2026-09-04 00:39:44 | 51.99872 | 21.75377 | 0° | 0km/h | 28784m | 0.0m/s | -46.0°C | 0.6% | 16.3hPa | 0V | 00:00:00 | 00:00:00 | 00:00:00 | |
| SP4MAZ | 2026-09-04 00:38:51 | 51.99872 | 21.75377 | 0° | 0km/h | 28784m | 0.0m/s | -47.9°C | 0.7% | 17.1hPa | 0V | 00:00:00 | 00:00:00 | 00:00:00 | |
| SP4MAZ | 2026-09-04 00:38:24 | 51.99872 | 21.75377 | 0° | 0km/h | 28784m | 0.0m/s | -48.0°C | 0.6% | 17.6hPa | 0V | 00:00:00 | 00:00:00 | 00:00:00 | |
| SP4MAZ | 2026-09-04 00:38:01 | 51.99872 | 21.75377 | 0° | 0km/h | 28784m | 0.0m/s | -48.1°C | 0.7% | 17.9hPa | 0V | 00:00:00 | 00:00:00 | 00:00:00 | |
| SP4MAZ | 2026-09-04 00:37:38 | 51.99228 | 21.74454 | 212° | 588km/h | 29427m | 112.9m/s | -48.4°C | 0.7% | 18.3hPa | 0V | 00:00:00 | 00:00:00 | 00:00:00 | |
| SONDE2-11 | 2026-09-04 00:37:35 | 51.99228 | 21.74454 | 211° | 588km/h | 29427m | 112.9m/s | -48.7°C | 0.7% | 18.6hPa | 0V | 00:00:00 | 00:00:00 | 00:00:00 | |
| SP3WXH-11 | 2026-09-04 00:37:28 | 51.99228 | 21.74454 | 211° | 588km/h | 29427m | 112.9m/s | -48.7°C | 0.7% | 18.6hPa | 0V | 00:00:00 | 00:00:00 | 00:00:00 | |
| SP4MAZ | 2026-09-04 00:37:08 | 52.00102 | 21.76658 | 256° | 506km/h | 28223m | 92.1m/s | -49.0°C | 0.7% | 18.9hPa | 0V | 00:00:00 | 00:00:00 | 00:00:00 | |
| SP3WXH-11 | 2026-09-04 00:36:57 | 52.00385 | 21.78521 | 342° | 2km/h | 27349m | 9.6m/s | -49.0°C | 0.7% | 19.1hPa | 0V | 00:00:00 | 00:00:00 | 00:00:00 | |
| SP4MAZ | 2026-09-04 00:36:43 | 52.00494 | 21.78860 | 228° | 13km/h | 27149m | 6.6m/s | -49.0°C | 0.7% | 19.3hPa | 0V | 00:00:00 | 00:00:00 | 00:00:00 | |
| SONDE2-11 | 2026-09-04 00:36:33 | 52.00535 | 21.78882 | 188° | 26km/h | 27065m | 5.6m/s | -48.8°C | 0.7% | 19.6hPa | 0V | 00:00:00 | 00:00:00 | 00:00:00 | |
| SP3WXH-11 | 2026-09-04 00:36:26 | 52.00553 | 21.78889 | 155° | 7km/h | 27023m | 6.2m/s | -48.9°C | 0.7% | 19.7hPa | 0V | 00:00:00 | 00:00:00 | 00:00:00 | |
| SP4MAZ | 2026-09-04 00:36:21 | 52.00570 | 21.78883 | 184° | 20km/h | 27005m | 5.8m/s | -49.0°C | 0.7% | 19.8hPa | 0V | 00:00:00 | 00:00:00 | 00:00:00 | |
| SP3BTT-10 | 2026-09-04 00:36:06 | 52.00659 | 21.78867 | 160° | 15km/h | 26905m | 7.8m/s | 0°C | 0% | 0hPa | 0V | 00:00:00 | 00:00:00 | 00:00:00 | |
| SONDE2-11 | 2026-09-04 00:36:02 | 52.00683 | 21.78851 | 166° | 22km/h | 26880m | 7.5m/s | -49.3°C | 0.7% | 20.1hPa | 0V | 00:00:00 | 00:00:00 | 00:00:00 | |
| SP3WXH-11 | 2026-09-04 00:35:55 | 52.00705 | 21.78827 | 127° | 15km/h | 26828m | 7.6m/s | -49.3°C | 0.7% | 20.3hPa | 0V | 00:00:00 | 00:00:00 | 00:00:00 | |
| SP4MAZ | 2026-09-04 00:35:29 | 52.00747 | 21.78630 | 102° | 18km/h | 26679m | 7.8m/s | -49.6°C | 0.7% | 20.8hPa | 0V | 00:00:00 | 00:00:00 | 00:00:00 | |
| SP3WXH-11 | 2026-09-04 00:35:24 | 52.00745 | 21.78597 | 66° | 20km/h | 26633m | 8.1m/s | -49.7°C | 0.7% | 20.9hPa | 0V | 00:00:00 | 00:00:00 | 00:00:00 | |
| SP4MAZ | 2026-09-04 00:35:08 | 52.00753 | 21.78522 | 108° | 11km/h | 26540m | 5.7m/s | -50.0°C | 0.7% | 21.2hPa | 0V | 00:00:00 | 00:00:00 | 00:00:00 | |
| SP3BTT-10 | 2026-09-04 00:35:07 | 52.00755 | 21.78512 | 57° | 11km/h | 26527m | 7.2m/s | 0°C | 0% | 0hPa | 0V | 00:00:00 | 00:00:00 | 00:00:00 | |
| SP3WXH-11 | 2026-09-04 00:34:53 | 52.00749 | 21.78454 | 38° | 13km/h | 26429m | 6.3m/s | -50.0°C | 0.7% | 21.5hPa | 0V | 00:00:00 | 00:00:00 | 00:00:00 | |
| SP4MAZ | 2026-09-04 00:34:44 | 52.00735 | 21.78425 | 84° | 16km/h | 26383m | 4.5m/s | -50.2°C | 0.7% | 21.7hPa | 0V | 00:00:00 | 00:00:00 | 00:00:00 | |
| SP3BTT-10 | 2026-09-04 00:34:24 | 52.00719 | 21.78388 | 321° | 11km/h | 26266m | 5.3m/s | 0°C | 0% | 0hPa | 0V | 00:00:00 | 00:00:00 | 00:00:00 | |
| SP3WXH-11 | 2026-09-04 00:34:22 | 52.00720 | 21.78392 | 259° | 5km/h | 26254m | 7.9m/s | -50.6°C | 0.8% | 22.2hPa | 0V | 00:00:00 | 00:00:00 | 00:00:00 | |
| SP4MAZ | 2026-09-04 00:34:14 | 52.00721 | 21.78393 | 218° | 7km/h | 26205m | 5.6m/s | -50.6°C | 0.8% | 22.3hPa | 0V | 00:00:00 | 00:00:00 | 00:00:00 | |
| SP3WXH-11 | 2026-09-04 00:33:51 | 52.00782 | 21.78485 | 247° | 11km/h | 26064m | 5.3m/s | -50.5°C | 0.8% | 22.8hPa | 0V | 00:00:00 | 00:00:00 | 00:00:00 | |
| SP4MAZ | 2026-09-04 00:33:21 | 52.00858 | 21.78507 | 161° | 11km/h | 25884m | 5.2m/s | -50.5°C | 0.8% | 23.4hPa | 0V | 00:00:00 | 00:00:00 | 00:00:00 | |
| SP3WXH-11 | 2026-09-04 00:33:20 | 52.00862 | 21.78503 | 117° | 7km/h | 25875m | 5.8m/s | -50.6°C | 0.8% | 23.5hPa | 0V | 00:00:00 | 00:00:00 | 00:00:00 | |
| SP3BTT-10 | 2026-09-04 00:33:06 | 52.00912 | 21.78479 | 175° | 16km/h | 25800m | 5.3m/s | 0°C | 0% | 0hPa | 0V | 00:00:00 | 00:00:00 | 00:00:00 | |
| SP4MAZ | 2026-09-04 00:33:01 | 52.00921 | 21.78471 | 87° | 4km/h | 25773m | 5.9m/s | -50.6°C | 0.8% | 23.9hPa | 0V | 00:00:00 | 00:00:00 | 00:00:00 | |
| SP3WXH-11 | 2026-09-04 00:32:49 | 52.00936 | 21.78457 | 157° | 11km/h | 25698m | 5.8m/s | -51.1°C | 0.8% | 24.1hPa | 0V | 00:00:00 | 00:00:00 | 00:00:00 | |
| SP4MAZ | 2026-09-04 00:32:39 | 52.00943 | 21.78467 | 139° | 11km/h | 25641m | 5.2m/s | -51.0°C | 0.8% | 24.3hPa | 0V | 00:00:00 | 00:00:00 | 00:00:00 | |
| SP3WXH-11 | 2026-09-04 00:32:18 | 52.00965 | 21.78386 | 107° | 11km/h | 25511m | 6.7m/s | -50.8°C | 0.8% | 24.9hPa | 0V | 00:00:00 | 00:00:00 | 00:00:00 | |
| SP4MAZ | 2026-09-04 00:32:08 | 52.00935 | 21.78336 | 50° | 18km/h | 25455m | 6.1m/s | -50.9°C | 0.8% | 25.0hPa | 0V | 00:00:00 | 00:00:00 | 00:00:00 | |
| SP3BTT-10 | 2026-09-04 00:32:04 | 52.00923 | 21.78311 | 48° | 13km/h | 25422m | 5.7m/s | 0°C | 0% | 0hPa | 0V | 00:00:00 | 00:00:00 | 00:00:00 | |
| SP3WXH-11 | 2026-09-04 00:31:47 | 52.00867 | 21.78275 | 353° | 16km/h | 25315m | 5.2m/s | -50.9°C | 0.8% | 25.6hPa | 0V | 00:00:00 | 00:00:00 | 00:00:00 | |
| SP4MAZ | 2026-09-04 00:31:24 | 52.00766 | 21.78319 | 337° | 16km/h | 25183m | 6.1m/s | -51.1°C | 0.8% | 26.1hPa | 0V | 00:00:00 | 00:00:00 | 00:00:00 | |
| SP3WXH-11 | 2026-09-04 00:31:16 | 52.00733 | 21.78363 | 294° | 22km/h | 25123m | 5.9m/s | -50.8°C | 0.8% | 26.4hPa | 0V | 00:00:00 | 00:00:00 | 00:00:00 | |
| SP3WXH-11 | 2026-09-04 00:30:45 | 52.00738 | 21.78524 | 186° | 9km/h | 24934m | 5.1m/s | -50.6°C | 0.8% | 27.1hPa | 0V | 00:00:00 | 00:00:00 | 00:00:00 | |
| SP4MAZ | 2026-09-04 00:30:34 | 52.00760 | 21.78521 | 181° | 7km/h | 24855m | 6.6m/s | -50.7°C | 0.8% | 27.5hPa | 0V | 00:00:00 | 00:00:00 | 00:00:00 | |
| SP3WXH-11 | 2026-09-04 00:30:14 | 52.00765 | 21.78536 | 215° | 11km/h | 24731m | 7.5m/s | -51.0°C | 0.8% | 28.0hPa | 0V | 00:00:00 | 00:00:00 | 00:00:00 | |
| SP4MAZ | 2026-09-04 00:30:13 | 52.00766 | 21.78540 | 213° | 15km/h | 24724m | 6.0m/s | -51.0°C | 0.8% | 28.0hPa | 0V | 00:00:00 | 00:00:00 | 00:00:00 | |
| SP3BTT-10 | 2026-09-04 00:30:06 | 52.00769 | 21.78552 | 113° | 7km/h | 24682m | 5.8m/s | 0°C | 0% | 0hPa | 0V | 00:00:00 | 00:00:00 | 00:00:00 | |
| SP4MAZ | 2026-09-04 00:29:48 | 52.00793 | 21.78515 | 125° | 16km/h | 24579m | 6.8m/s | -51.4°C | 0.8% | 28.6hPa | 0V | 00:00:00 | 00:00:00 | 00:00:00 | |
| SP3WXH-11 | 2026-09-04 00:29:43 | 52.00801 | 21.78498 | 49° | 0km/h | 24545m | 5.6m/s | -51.5°C | 0.8% | 28.9hPa | 0V | 00:00:00 | 00:00:00 | 00:00:00 | |
| SP4MAZ | 2026-09-04 00:29:18 | 52.00825 | 21.78541 | 237° | 15km/h | 24395m | 5.2m/s | -51.3°C | 0.8% | 29.5hPa | 0V | 00:00:00 | 00:00:00 | 00:00:00 | |
| SP3WXH-11 | 2026-09-04 00:29:12 | 52.00826 | 21.78600 | 261° | 15km/h | 24351m | 6.5m/s | -51.4°C | 0.9% | 29.7hPa | 0V | 00:00:00 | 00:00:00 | 00:00:00 | |
| SP4MAZ | 2026-09-04 00:28:58 | 52.00847 | 21.78654 | 201° | 7km/h | 24277m | 5.8m/s | -51.6°C | 0.9% | 30.0hPa | 0V | 00:00:00 | 00:00:00 | 00:00:00 | |
| SP3WXH-11 | 2026-09-04 00:28:41 | 52.00918 | 21.78677 | 169° | 13km/h | 24172m | 5.2m/s | -51.8°C | 0.9% | 30.5hPa | 0V | 00:00:00 | 00:00:00 | 00:00:00 | |
| SP4MAZ | 2026-09-04 00:28:36 | 52.00932 | 21.78674 | 182° | 20km/h | 24154m | 5.2m/s | -51.9°C | 0.9% | 30.6hPa | 0V | 00:00:00 | 00:00:00 | 00:00:00 | |
| SP3WXH-11 | 2026-09-04 00:28:10 | 52.01069 | 21.78618 | 151° | 24km/h | 23987m | 7.1m/s | -52.0°C | 0.9% | 31.4hPa | 0V | 00:00:00 | 00:00:00 | 00:00:00 | |
| SP4MAZ | 2026-09-04 00:28:03 | 52.01101 | 21.78624 | 191° | 31km/h | 23955m | 4.1m/s | -52.1°C | 0.9% | 31.5hPa | 0V | 00:00:00 | 00:00:00 | 00:00:00 | |
| SP4MAZ | 2026-09-04 00:27:43 | 52.01242 | 21.78527 | 138° | 33km/h | 23838m | 5.2m/s | -51.8°C | 0.9% | 32.1hPa | 0V | 00:00:00 | 00:00:00 | 00:00:00 | |
| SP3WXH-11 | 2026-09-04 00:27:39 | 52.01267 | 21.78491 | 150° | 26km/h | 23811m | 5.8m/s | -51.8°C | 0.9% | 32.3hPa | 0V | 00:00:00 | 00:00:00 | 00:00:00 | |
| SP4MAZ | 2026-09-04 00:27:19 | 52.01367 | 21.78367 | 137° | 27km/h | 23702m | 6.8m/s | -51.6°C | 0.9% | 32.8hPa | 0V | 00:00:00 | 00:00:00 | 00:00:00 | |
| SP3WXH-11 | 2026-09-04 00:27:08 | 52.01436 | 21.78291 | 152° | 16km/h | 23622m | 7.2m/s | -51.9°C | 0.9% | 33.2hPa | 0V | 00:00:00 | 00:00:00 | 00:00:00 | |
| SP4MAZ | 2026-09-04 00:26:50 | 52.01495 | 21.78249 | 171° | 11km/h | 23515m | 5.8m/s | -52.3°C | 1.0% | 33.7hPa | 0V | 00:00:00 | 00:00:00 | 00:00:00 | |
| SP3WXH-11 | 2026-09-04 00:26:37 | 52.01554 | 21.78219 | 190° | 15km/h | 23431m | 6.5m/s | -52.3°C | 0.9% | 34.2hPa | 0V | 00:00:00 | 00:00:00 | 00:00:00 | |
| SP4MAZ | 2026-09-04 00:26:26 | 52.01595 | 21.78197 | 142° | 31km/h | 23380m | 5.6m/s | -52.4°C | 0.9% | 34.5hPa | 0V | 00:00:00 | 00:00:00 | 00:00:00 | |
| SP3WXH-11 | 2026-09-04 00:26:05 | 52.01703 | 21.78006 | 125° | 24km/h | 23247m | 5.3m/s | -52.4°C | 0.9% | 35.2hPa | 0V | 00:00:00 | 00:00:00 | 00:00:00 | |
| SP4MAZ | 2026-09-04 00:25:55 | 52.01750 | 21.77925 | 132° | 29km/h | 23193m | 5.8m/s | -52.5°C | 0.9% | 35.5hPa | 0V | 00:00:00 | 00:00:00 | 00:00:00 | |
| SP3WXH-11 | 2026-09-04 00:25:35 | 52.01805 | 21.77794 | 117° | 29km/h | 23057m | 5.0m/s | -52.6°C | 0.9% | 36.2hPa | 0V | 00:00:00 | 00:00:00 | 00:00:00 | |
| SP4MAZ | 2026-09-04 00:25:33 | 52.01805 | 21.77794 | 118° | 29km/h | 23058m | 5.0m/s | -52.6°C | 0.9% | 36.2hPa | 0V | 00:00:00 | 00:00:00 | 00:00:00 | |
| SP4MAZ | 2026-09-04 00:25:13 | 52.01883 | 21.77660 | 143° | 20km/h | 22944m | 5.3m/s | -52.9°C | 1.0% | 36.9hPa | 0V | 00:00:00 | 00:00:00 | 00:00:00 | |
| SP3WXH-11 | 2026-09-04 00:25:03 | 52.01925 | 21.77596 | 122° | 33km/h | 22885m | 7.1m/s | -52.7°C | 1.0% | 37.2hPa | 0V | 00:00:00 | 00:00:00 | 00:00:00 | |
| SP4MAZ | 2026-09-04 00:24:53 | 52.01956 | 21.77522 | 122° | 16km/h | 22836m | 5.9m/s | -52.7°C | 1.0% | 37.5hPa | 0V | 00:00:00 | 00:00:00 | 00:00:00 | |
| SP3WXH-11 | 2026-09-04 00:24:32 | 52.02006 | 21.77367 | 110° | 18km/h | 22718m | 6.4m/s | -52.9°C | 1.0% | 38.2hPa | 0V | 00:00:00 | 00:00:00 | 00:00:00 | |
| SP4MAZ | 2026-09-04 00:24:24 | 52.02010 | 21.77336 | 109° | 11km/h | 22682m | 6.1m/s | -53.2°C | 1.0% | 38.4hPa | 0V | 00:00:00 | 00:00:00 | 00:00:00 | |
| SP4MAZ | 2026-09-04 00:24:03 | 52.02031 | 21.77125 | 71° | 31km/h | 22560m | 4.7m/s | -53.5°C | 1.0% | 39.1hPa | 0V | 00:00:00 | 00:00:00 | 00:00:00 | |
| SP3WXH-11 | 2026-09-04 00:24:01 | 52.02030 | 21.77094 | 86° | 18km/h | 22544m | 4.5m/s | -53.5°C | 1.0% | 39.2hPa | 0V | 00:00:00 | 00:00:00 | 00:00:00 | |
| SP4MAZ | 2026-09-04 00:23:41 | 52.02002 | 21.76961 | 66° | 16km/h | 22435m | 5.1m/s | -53.6°C | 1.0% | 39.9hPa | 0V | 00:00:00 | 00:00:00 | 00:00:00 | |
| SP3WXH-11 | 2026-09-04 00:23:31 | 52.01989 | 21.76923 | 79° | 7km/h | 22376m | 4.9m/s | -53.6°C | 1.0% | 40.2hPa | 0V | 00:00:00 | 00:00:00 | 00:00:00 | |
| SP4MAZ | 2026-09-04 00:23:21 | 52.01980 | 21.76915 | 265° | 5km/h | 22333m | 3.6m/s | -53.5°C | 1.0% | 40.5hPa | 0V | 00:00:00 | 00:00:00 | 00:00:00 | |
| SP3WXH-11 | 2026-09-04 00:22:59 | 52.01953 | 21.76935 | 204° | 2km/h | 22226m | 5.5m/s | -53.1°C | 1.0% | 41.2hPa | 0V | 00:00:00 | 00:00:00 | 00:00:00 | |
| SP4MAZ | 2026-09-04 00:22:30 | 52.01939 | 21.76982 | 191° | 4km/h | 22068m | 5.3m/s | -52.4°C | 1.0% | 42.2hPa | 0V | 00:00:00 | 00:00:00 | 00:00:00 | |
| SP3WXH-11 | 2026-09-04 00:22:28 | 52.01941 | 21.76983 | 202° | 7km/h | 22056m | 5.6m/s | -52.4°C | 0.9% | 42.3hPa | 0V | 00:00:00 | 00:00:00 | 00:00:00 | |
| SP4MAZ | 2026-09-04 00:22:08 | 52.01972 | 21.76983 | 177° | 5km/h | 21943m | 6.1m/s | -52.4°C | 1.0% | 43.0hPa | 0V | 00:00:00 | 00:00:00 | 00:00:00 | |
| SP3WXH-11 | 2026-09-04 00:21:57 | 52.02008 | 21.76969 | 180° | 16km/h | 21877m | 5.1m/s | -52.3°C | 1.0% | 43.5hPa | 0V | 00:00:00 | 00:00:00 | 00:00:00 | |
| SP4MAZ | 2026-09-04 00:21:45 | 52.02052 | 21.76930 | 162° | 24km/h | 21820m | 4.9m/s | -52.3°C | 1.0% | 43.8hPa | 0V | 00:00:00 | 00:00:00 | 00:00:00 | |
| SP3WXH-11 | 2026-09-04 00:20:55 | 52.02187 | 21.76696 | 168° | 15km/h | 21537m | 5.9m/s | -52.5°C | 1.0% | 45.8hPa | 0V | 00:00:00 | 00:00:00 | 00:00:00 | |
| SP4MAZ | 2026-09-04 00:20:54 | 52.02186 | 21.76696 | 170° | 15km/h | 21537m | 5.9m/s | -52.5°C | 1.0% | 45.8hPa | 0V | 00:00:00 | 00:00:00 | 00:00:00 | |
| SP4MAZ | 2026-09-04 00:20:34 | 52.02240 | 21.76560 | 106° | 13km/h | 21431m | 6.1m/s | -53.3°C | 1.1% | 46.6hPa | 0V | 00:00:00 | 00:00:00 | 00:00:00 | |
| SQ9EZE-14 | 2026-09-04 00:20:24 | 52.02256 | 21.76491 | 131° | 11km/h | 21370m | 5.9m/s | 0°C | 0% | 0hPa | 0V | 00:00:00 | 00:00:00 | 00:00:00 | |
| SP4MAZ | 2026-09-04 00:20:10 | 52.02277 | 21.76436 | 290° | 2km/h | 21290m | 5.6m/s | -53.5°C | 1.1% | 47.6hPa | 0V | 00:00:00 | 00:00:00 | 00:00:00 | |
| SP3WXH-11 | 2026-09-04 00:19:53 | 52.02312 | 21.76380 | 119° | 16km/h | 21195m | 5.1m/s | -53.3°C | 1.1% | 48.3hPa | 0V | 00:00:00 | 00:00:00 | 00:00:00 | |
| SP4MAZ | 2026-09-04 00:19:39 | 52.02333 | 21.76324 | 91° | 26km/h | 21130m | 5.4m/s | -53.6°C | 1.0% | 48.8hPa | 0V | 00:00:00 | 00:00:00 | 00:00:00 | |
| SP3WXH-11 | 2026-09-04 00:19:22 | 52.02347 | 21.76145 | 82° | 22km/h | 21034m | 5.3m/s | -54.2°C | 1.1% | 49.5hPa | 0V | 00:00:00 | 00:00:00 | 00:00:00 | |
| SP4MAZ | 2026-09-04 00:19:19 | 52.02344 | 21.76123 | 85° | 31km/h | 21021m | 4.7m/s | -54.2°C | 1.1% | 49.6hPa | 0V | 00:00:00 | 00:00:00 | 00:00:00 | |
| SP3WXH-11 | 2026-09-04 00:18:51 | 52.02336 | 21.75925 | 114° | 5km/h | 20852m | 4.1m/s | -53.6°C | 1.1% | 50.9hPa | 0V | 00:00:00 | 00:00:00 | 00:00:00 | |
| SP4MAZ | 2026-09-04 00:18:23 | 52.02344 | 21.75812 | 131° | 15km/h | 20717m | 6.4m/s | -53.1°C | 1.1% | 52.0hPa | 0V | 00:00:00 | 00:00:00 | 00:00:00 | |
| SP3WXH-11 | 2026-09-04 00:18:20 | 52.02350 | 21.75790 | 105° | 13km/h | 20697m | 4.9m/s | -53.0°C | 1.1% | 52.2hPa | 0V | 00:00:00 | 00:00:00 | 00:00:00 | |
| SQ9EZE-14 | 2026-09-04 00:18:05 | 52.02394 | 21.75753 | 147° | 15km/h | 20623m | 6.6m/s | 0°C | 0% | 0hPa | 0V | 00:00:00 | 00:00:00 | 00:00:00 | |
| SP3WXH-11 | 2026-09-04 00:17:49 | 52.02471 | 21.75658 | 119° | 20km/h | 20533m | 5.4m/s | -53.2°C | 1.0% | 53.6hPa | 0V | 00:00:00 | 00:00:00 | 00:00:00 | |
| SQ9EZE-14 | 2026-09-04 00:17:48 | 52.02474 | 21.75650 | 127° | 22km/h | 20525m | 6.7m/s | 0°C | 0% | 0hPa | 0V | 00:00:00 | 00:00:00 | 00:00:00 | |
| SP4MAZ | 2026-09-04 00:17:41 | 52.02506 | 21.75583 | 151° | 31km/h | 20472m | 3.2m/s | -53.3°C | 1.0% | 54.0hPa | 0V | 00:00:00 | 00:00:00 | 00:00:00 | |
| SP3WXH-11 | 2026-09-04 00:17:18 | 52.02585 | 21.75418 | 118° | 33km/h | 20332m | 7.1m/s | -53.5°C | 1.1% | 55.1hPa | 0V | 00:00:00 | 00:00:00 | 00:00:00 | |
| SP4MAZ | 2026-09-04 00:17:09 | 52.02619 | 21.75328 | 117° | 27km/h | 20284m | 5.2m/s | -53.4°C | 1.1% | 55.6hPa | 0V | 00:00:00 | 00:00:00 | 00:00:00 | |
| SP3WXH-11 | 2026-09-04 00:16:47 | 52.02648 | 21.75045 | 92° | 31km/h | 20150m | 5.5m/s | -53.5°C | 1.1% | 56.8hPa | 0V | 00:00:00 | 00:00:00 | 00:00:00 | |
| SP4MAZ | 2026-09-04 00:16:46 | 52.02648 | 21.75045 | 94° | 33km/h | 20150m | 5.5m/s | -53.5°C | 1.1% | 56.8hPa | 0V | 00:00:00 | 00:00:00 | 00:00:00 | |
| SP4MAZ | 2026-09-04 00:16:18 | 52.02661 | 21.74742 | 103° | 26km/h | 19996m | 5.9m/s | -52.6°C | 1.1% | 58.2hPa | 0V | 00:00:00 | 00:00:00 | 00:00:00 | |
| SP3WXH-11 | 2026-09-04 00:16:16 | 52.02666 | 21.74723 | 118° | 26km/h | 19986m | 5.0m/s | -52.5°C | 1.1% | 58.3hPa | 0V | 00:00:00 | 00:00:00 | 00:00:00 | |
| SP3WXH-11 | 2026-09-04 00:15:45 | 52.02749 | 21.74391 | 114° | 26km/h | 19810m | 4.7m/s | -52.5°C | 1.0% | 59.9hPa | 0V | 00:00:00 | 00:00:00 | 00:00:00 | |
| SP4MAZ | 2026-09-04 00:15:23 | 52.02740 | 21.74158 | 65° | 35km/h | 19696m | 4.3m/s | -53.0°C | 1.1% | 60.9hPa | 0V | 00:00:00 | 00:00:00 | 00:00:00 | |
| SP3WXH-11 | 2026-09-04 00:15:14 | 52.02733 | 21.74048 | 79° | 22km/h | 19633m | 5.4m/s | -52.6°C | 1.1% | 61.5hPa | 0V | 00:00:00 | 00:00:00 | 00:00:00 | |
| SP4MAZ | 2026-09-04 00:15:00 | 52.02747 | 21.73940 | 107° | 26km/h | 19566m | 4.1m/s | -52.1°C | 1.1% | 62.1hPa | 0V | 00:00:00 | 00:00:00 | 00:00:00 | |
| SP3WXH-11 | 2026-09-04 00:14:43 | 52.02794 | 21.73780 | 129° | 31km/h | 19468m | 3.7m/s | -52.1°C | 1.0% | 63.1hPa | 0V | 00:00:00 | 00:00:00 | 00:00:00 | |
| SP4MAZ | 2026-09-04 00:14:40 | 52.02799 | 21.73770 | 133° | 35km/h | 19462m | 5.4m/s | -52.1°C | 1.1% | 63.2hPa | 0V | 00:00:00 | 00:00:00 | 00:00:00 | |
| SP3WXH-11 | 2026-09-04 00:14:12 | 52.02944 | 21.73447 | 118° | 26km/h | 19290m | 5.1m/s | -52.3°C | 1.1% | 64.8hPa | 0V | 00:00:00 | 00:00:00 | 00:00:00 | |
| SP4MAZ | 2026-09-04 00:14:11 | 52.02944 | 21.73447 | 120° | 27km/h | 19290m | 5.1m/s | -52.3°C | 1.1% | 64.8hPa | 0V | 00:00:00 | 00:00:00 | 00:00:00 | |
| SP4MAZ | 2026-09-04 00:13:47 | 52.03010 | 21.73170 | 105° | 26km/h | 19173m | 4.3m/s | -51.9°C | 1.0% | 66.0hPa | 0V | 00:00:00 | 00:00:00 | 00:00:00 | |
| SP3WXH-11 | 2026-09-04 00:13:41 | 52.03023 | 21.73113 | 93° | 26km/h | 19131m | 4.1m/s | -52.3°C | 1.1% | 66.4hPa | 0V | 00:00:00 | 00:00:00 | 00:00:00 | |
| SP4MAZ | 2026-09-04 00:13:18 | 52.03004 | 21.72962 | 59° | 13km/h | 19032m | 5.4m/s | -52.0°C | 1.1% | 67.5hPa | 0V | 00:00:00 | 00:00:00 | 00:00:00 | |
| SP3WXH-11 | 2026-09-04 00:13:10 | 52.03014 | 21.72900 | 86° | 18km/h | 18981m | 7.2m/s | -51.6°C | 1.1% | 68.1hPa | 0V | 00:00:00 | 00:00:00 | 00:00:00 | |
| SP4MAZ | 2026-09-04 00:12:57 | 52.03039 | 21.72821 | 98° | 27km/h | 18913m | 4.1m/s | -51.2°C | 1.0% | 68.7hPa | 0V | 00:00:00 | 00:00:00 | 00:00:00 | |
| SP3WXH-11 | 2026-09-04 00:12:39 | 52.03108 | 21.72628 | 111° | 20km/h | 18817m | 4.4m/s | -51.4°C | 1.0% | 69.6hPa | 0V | 00:00:00 | 00:00:00 | 00:00:00 | |
| SP4MAZ | 2026-09-04 00:12:35 | 52.03114 | 21.72603 | 130° | 31km/h | 18805m | 3.7m/s | -51.7°C | 1.1% | 69.8hPa | 0V | 00:00:00 | 00:00:00 | 00:00:00 | |
| SP3WXH-11 | 2026-09-04 00:12:08 | 52.03253 | 21.72206 | 116° | 40km/h | 18685m | 5.4m/s | -51.6°C | 1.0% | 71.3hPa | 0V | 00:00:00 | 00:00:00 | 00:00:00 | |
| SP4MAZ | 2026-09-04 00:12:02 | 52.03275 | 21.72140 | 119° | 47km/h | 18666m | 4.6m/s | -52.1°C | 1.1% | 71.5hPa | 0V | 00:00:00 | 00:00:00 | 00:00:00 | |
| SP4MAZ | 2026-09-04 00:11:41 | 52.03310 | 21.71848 | 93° | 27km/h | 18545m | 5.0m/s | -52.9°C | 1.1% | 72.7hPa | 0V | 00:00:00 | 00:00:00 | 00:00:00 | |
| SP3WXH-11 | 2026-09-04 00:11:37 | 52.03311 | 21.71773 | 99° | 37km/h | 18513m | 6.8m/s | -53.0°C | 1.1% | 73.1hPa | 0V | 00:00:00 | 00:00:00 | 00:00:00 | |
| SP4MAZ | 2026-09-04 00:11:18 | 52.03350 | 21.71557 | 126° | 38km/h | 18411m | 3.9m/s | -53.3°C | 1.2% | 74.2hPa | 0V | 00:00:00 | 00:00:00 | 00:00:00 | |
| SP3WXH-11 | 2026-09-04 00:11:05 | 52.03404 | 21.71415 | 129° | 26km/h | 18339m | 5.3m/s | -52.8°C | 1.2% | 75.1hPa | 0V | 00:00:00 | 00:00:00 | 00:00:00 | |
| SP4MAZ | 2026-09-04 00:10:58 | 52.03430 | 21.71354 | 143° | 26km/h | 18300m | 7.0m/s | -52.7°C | 1.2% | 75.5hPa | 0V | 00:00:00 | 00:00:00 | 00:00:00 | |
| SP3WXH-11 | 2026-09-04 00:10:35 | 52.03577 | 21.71073 | 112° | 47km/h | 18152m | 5.3m/s | -53.4°C | 1.2% | 77.3hPa | 0V | 00:00:00 | 00:00:00 | 00:00:00 | |
| SP4MAZ | 2026-09-04 00:10:26 | 52.03636 | 21.70943 | 126° | 47km/h | 18105m | 6.7m/s | -53.5°C | 1.2% | 77.8hPa | 0V | 00:00:00 | 00:00:00 | 00:00:00 | |
| SP4MAZ | 2026-09-04 00:10:05 | 52.03738 | 21.70606 | 111° | 38km/h | 17983m | 5.6m/s | -53.0°C | 1.2% | 79.3hPa | 0V | 00:00:00 | 00:00:00 | 00:00:00 | |
| SP3WXH-11 | 2026-09-04 00:10:03 | 52.03749 | 21.70558 | 113° | 44km/h | 17965m | 5.6m/s | -53.0°C | 1.2% | 79.5hPa | 0V | 00:00:00 | 00:00:00 | 00:00:00 | |
| SP4MAZ | 2026-09-04 00:09:45 | 52.03803 | 21.70308 | 113° | 26km/h | 17877m | 5.6m/s | -52.8°C | 1.1% | 80.6hPa | 0V | 00:00:00 | 00:00:00 | 00:00:00 | |
| SP3WXH-11 | 2026-09-04 00:09:32 | 52.03851 | 21.70145 | 92° | 31km/h | 17793m | 3.6m/s | -52.5°C | 1.2% | 81.8hPa | 0V | 00:00:00 | 00:00:00 | 00:00:00 | |
| SP4MAZ | 2026-09-04 00:09:23 | 52.03860 | 21.70020 | 108° | 46km/h | 17750m | 5.5m/s | -52.1°C | 1.1% | 82.3hPa | 0V | 00:00:00 | 00:00:00 | 00:00:00 | |
| SP4MAZ | 2026-09-04 00:09:03 | 52.03928 | 21.69745 | 119° | 37km/h | 17633m | 6.9m/s | -51.4°C | 1.1% | 83.8hPa | 0V | 00:00:00 | 00:00:00 | 00:00:00 | |
| SP3WXH-11 | 2026-09-04 00:09:02 | 52.03942 | 21.69703 | 115° | 35km/h | 17615m | 6.0m/s | -51.3°C | 1.1% | 84.0hPa | 0V | 00:00:00 | 00:00:00 | 00:00:00 | |
| SP4MAZ | 2026-09-04 00:08:33 | 52.04073 | 21.69308 | 122° | 49km/h | 17457m | 5.7m/s | -51.2°C | 1.1% | 86.1hPa | 0V | 00:00:00 | 00:00:00 | 00:00:00 | |
| SP3WXH-11 | 2026-09-04 00:08:30 | 52.04105 | 21.69240 | 128° | 53km/h | 17436m | 6.1m/s | -51.2°C | 1.0% | 86.3hPa | 0V | 00:00:00 | 00:00:00 | 00:00:00 | |
| SP4MAZ | 2026-09-04 00:08:13 | 52.04198 | 21.69029 | 127° | 44km/h | 17345m | 5.9m/s | -51.1°C | 1.2% | 87.6hPa | 0V | 00:00:00 | 00:00:00 | 00:00:00 | |
| SP3WXH-11 | 2026-09-04 00:07:59 | 52.04292 | 21.68811 | 129° | 51km/h | 17258m | 4.1m/s | -50.5°C | 1.1% | 88.8hPa | 0V | 00:00:00 | 00:00:00 | 00:00:00 | |
| SP4MAZ | 2026-09-04 00:07:50 | 52.04353 | 21.68657 | 117° | 55km/h | 17206m | 3.6m/s | -51.0°C | 1.1% | 89.5hPa | 0V | 00:00:00 | 00:00:00 | 00:00:00 | |
| SP3WXH-11 | 2026-09-04 00:07:29 | 52.04489 | 21.68249 | 128° | 44km/h | 17075m | 6.1m/s | -50.5°C | 1.1% | 91.2hPa | 0V | 00:00:00 | 00:00:00 | 00:00:00 | |
| SP4MAZ | 2026-09-04 00:07:27 | 52.04489 | 21.68249 | 129° | 44km/h | 17075m | 6.1m/s | -50.5°C | 1.1% | 91.2hPa | 0V | 00:00:00 | 00:00:00 | 00:00:00 | |
| SQ9EZE-14 | 2026-09-04 00:07:22 | 52.04520 | 21.68147 | 109° | 47km/h | 17039m | 5.9m/s | 0°C | 0% | 0hPa | 0V | 00:00:00 | 00:00:00 | 00:00:00 | |
| SP3WXH-11 | 2026-09-04 00:06:58 | 52.04638 | 21.67771 | 109° | 38km/h | 16907m | 2.7m/s | -51.2°C | 1.1% | 93.6hPa | 0V | 00:00:00 | 00:00:00 | 00:00:00 | |
| SP4MAZ | 2026-09-04 00:06:56 | 52.04638 | 21.67771 | 111° | 38km/h | 16907m | 2.7m/s | -51.2°C | 1.1% | 93.6hPa | 0V | 00:00:00 | 00:00:00 | 00:00:00 | |
| SP4MAZ | 2026-09-04 00:06:35 | 52.04751 | 21.67442 | 107° | 49km/h | 16789m | 5.3m/s | -52.0°C | 1.2% | 95.4hPa | 0V | 00:00:00 | 00:00:00 | 00:00:00 | |
| SP3WXH-11 | 2026-09-04 00:06:26 | 52.04815 | 21.67253 | 118° | 46km/h | 16733m | 4.0m/s | -52.3°C | 1.2% | 96.2hPa | 0V | 00:00:00 | 00:00:00 | 00:00:00 | |
| SP4MAZ | 2026-09-04 00:06:15 | 52.04860 | 21.67071 | 129° | 49km/h | 16680m | 5.8m/s | -52.7°C | 1.2% | 97.0hPa | 0V | 00:00:00 | 00:00:00 | 00:00:00 | |
| SP3WXH-11 | 2026-09-04 00:05:55 | 52.04956 | 21.66720 | 108° | 38km/h | 16550m | 6.1m/s | -53.0°C | 1.3% | 98.9hPa | 0V | 00:00:00 | 00:00:00 | 00:00:00 | |
| SP4MAZ | 2026-09-04 00:05:53 | 52.04959 | 21.66704 | 113° | 42km/h | 16545m | 3.3m/s | -52.9°C | 1.4% | 99.0hPa | 0V | 00:00:00 | 00:00:00 | 00:00:00 | |
| SP4MAZ | 2026-09-04 00:05:32 | 52.05033 | 21.66387 | 120° | 37km/h | 16424m | 3.5m/s | -52.4°C | 1.3% | 100.8hPa | 0V | 00:00:00 | 00:00:00 | 00:00:00 | |
| SP3WXH-11 | 2026-09-04 00:05:24 | 52.05062 | 21.66255 | 122° | 38km/h | 16353m | 5.2m/s | -52.5°C | 1.3% | 101.6hPa | 0V | 00:00:00 | 00:00:00 | 00:00:00 | |
| SP3WXH-11 | 2026-09-04 00:04:53 | 52.05263 | 21.65915 | 134° | 26km/h | 16198m | 7.0m/s | -53.1°C | 1.3% | 104.5hPa | 0V | 00:00:00 | 00:00:00 | 00:00:00 | |
| SP4MAZ | 2026-09-04 00:04:34 | 52.05354 | 21.65679 | 129° | 51km/h | 16047m | 2.6m/s | -53.3°C | 1.4% | 106.4hPa | 0V | 00:00:00 | 00:00:00 | 00:00:00 | |
| SP3WXH-11 | 2026-09-04 00:04:23 | 52.05435 | 21.65479 | 129° | 37km/h | 16006m | 8.0m/s | -53.2°C | 1.4% | 107.6hPa | 0V | 00:00:00 | 00:00:00 | 00:00:00 | |
| SP4MAZ | 2026-09-04 00:04:03 | 52.05510 | 21.65253 | 128° | 27km/h | 15899m | 6.0m/s | -52.7°C | 1.3% | 109.5hPa | 0V | 00:00:00 | 00:00:00 | 00:00:00 | |
| SP3WXH-11 | 2026-09-04 00:03:52 | 52.05585 | 21.65063 | 124° | 49km/h | 15829m | 4.6m/s | -52.4°C | 1.4% | 110.7hPa | 0V | 00:00:00 | 00:00:00 | 00:00:00 | |
| SP4MAZ | 2026-09-04 00:03:44 | 52.05638 | 21.64948 | 131° | 51km/h | 15794m | 4.6m/s | -52.1°C | 1.3% | 111.3hPa | 0V | 00:00:00 | 00:00:00 | 00:00:00 | |
| SP4MAZ | 2026-09-04 00:03:21 | 52.05828 | 21.64571 | 113° | 46km/h | 15718m | 10.5m/s | -51.7°C | 1.4% | 113.2hPa | 0V | 00:00:00 | 00:00:00 | 00:00:00 | |
| SP3WXH-11 | 2026-09-04 00:03:20 | 52.05833 | 21.64554 | 110° | 46km/h | 15711m | 9.0m/s | -51.7°C | 1.4% | 113.3hPa | 0V | 00:00:00 | 00:00:00 | 00:00:00 | |
| SP4MAZ | 2026-09-04 00:01:42 | 52.06658 | 21.62598 | 116° | 53km/h | 15125m | 4.3m/s | -52.0°C | 1.5% | 123.2hPa | 0V | 00:00:00 | 00:00:00 | 00:00:00 | |
| SP3WXH-11 | 2026-09-04 00:01:20 | 52.06774 | 21.62268 | 113° | 46km/h | 15025m | 4.3m/s | -52.4°C | 1.6% | 125.0hPa | 0V | 00:00:00 | 00:00:00 | 00:00:00 | |
| SP4MAZ | 2026-09-04 00:01:17 | 52.06782 | 21.62233 | 113° | 47km/h | 15014m | 5.0m/s | -52.3°C | 1.6% | 125.1hPa | 0V | 00:00:00 | 00:00:00 | 00:00:00 | |
| SP4MAZ | 2026-09-04 00:00:54 | 52.06869 | 21.61852 | 138° | 68km/h | 14829m | -4.6m/s | -52.1°C | 1.6% | 127.0hPa | 0V | 00:00:00 | 00:00:00 | 00:00:00 | |
| SP3WXH-11 | 2026-09-04 00:00:46 | 52.06985 | 21.61682 | 143° | 55km/h | 14864m | -1.7m/s | -52.0°C | 1.6% | 127.8hPa | 0V | 00:00:00 | 00:00:00 | 00:00:00 | |
| SP3WXH-11 | 2026-09-04 00:00:14 | 52.07454 | 21.61169 | 138° | 77km/h | 14991m | 2.5m/s | -52.0°C | 1.6% | 131.5hPa | 0V | 00:00:00 | 00:00:00 | 00:00:00 | |
| SP4MAZ | 2026-09-04 00:00:10 | 52.07519 | 21.61107 | 145° | 68km/h | 15020m | -13.5m/s | -51.9°C | 1.6% | 132.1hPa | 0V | 00:00:00 | 00:00:00 | 00:00:00 | |
| SP4MAZ | 2026-09-03 23:59:49 | 52.07654 | 21.60658 | 75° | 66km/h | 14770m | 32.3m/s | -52.2°C | 1.7% | 134.9hPa | 0V | 00:00:00 | 00:00:00 | 00:00:00 | |
| SP3WXH-11 | 2026-09-03 23:59:43 | 52.07752 | 21.60505 | 136° | 64km/h | 14766m | -0.3m/s | -52.0°C | 1.7% | 136.1hPa | 0V | 00:00:00 | 00:00:00 | 00:00:00 | |
| SP4MAZ | 2026-09-03 23:59:28 | 52.07876 | 21.60220 | 77° | 73km/h | 14650m | 44.6m/s | -52.2°C | 1.7% | 137.9hPa | 0V | 00:00:00 | 00:00:00 | 00:00:00 | |
| SP3WXH-11 | 2026-09-03 23:59:12 | 52.08000 | 21.59751 | 126° | 82km/h | 14325m | 3.6m/s | -52.0°C | 1.7% | 140.4hPa | 0V | 00:00:00 | 00:00:00 | 00:00:00 | |
| SP4MAZ | 2026-09-03 23:59:08 | 52.08037 | 21.59700 | 127° | 78km/h | 14340m | 9.0m/s | -52.1°C | 1.6% | 140.7hPa | 0V | 00:00:00 | 00:00:00 | 00:00:00 | |
| SP4MAZ | 2026-09-03 23:58:46 | 52.08206 | 21.59179 | 117° | 64km/h | 14132m | 7.0m/s | -52.5°C | 1.7% | 143.7hPa | 0V | 00:00:00 | 00:00:00 | 00:00:00 | |
| SQ9EZE-14 | 2026-09-03 23:58:40 | 52.08260 | 21.59035 | 126° | 75km/h | 14086m | 9.0m/s | 0°C | 0% | 0hPa | 0V | 00:00:00 | 00:00:00 | 00:00:00 | |
| SP4MAZ | 2026-09-03 23:58:26 | 52.08419 | 21.58677 | 125° | 84km/h | 13992m | 5.6m/s | -52.3°C | 1.7% | 146.6hPa | 0V | 00:00:00 | 00:00:00 | 00:00:00 | |
| SP3WXH-11 | 2026-09-03 23:58:10 | 52.08610 | 21.58174 | 120° | 77km/h | 13901m | 3.7m/s | -52.1°C | 1.7% | 148.6hPa | 0V | 00:00:00 | 00:00:00 | 00:00:00 | |
| SP4MAZ | 2026-09-03 23:57:34 | 52.08953 | 21.57371 | 128° | 69km/h | 13737m | 3.1m/s | -51.5°C | 1.8% | 152.4hPa | 0V | 00:00:00 | 00:00:00 | 00:00:00 | |
| SP4MAZ | 2026-09-03 23:57:11 | 52.09220 | 21.56891 | 137° | 80km/h | 13636m | 4.5m/s | -50.8°C | 1.7% | 154.9hPa | 0V | 00:00:00 | 00:00:00 | 00:00:00 | |
| SP3WXH-11 | 2026-09-03 23:57:08 | 52.09288 | 21.56796 | 140° | 69km/h | 13617m | 3.6m/s | -50.7°C | 1.7% | 155.5hPa | 0V | 00:00:00 | 00:00:00 | 00:00:00 | |
| SP4MAZ | 2026-09-03 23:56:52 | 52.09491 | 21.56491 | 135° | 82km/h | 13554m | 4.0m/s | -51.7°C | 1.9% | 157.2hPa | 0V | 00:00:00 | 00:00:00 | 00:00:00 | |
| SP3WXH-11 | 2026-09-03 23:56:37 | 52.09705 | 21.56080 | 121° | 80km/h | 13493m | 4.5m/s | -51.5°C | 1.8% | 158.9hPa | 0V | 00:00:00 | 00:00:00 | 00:00:00 | |
| SP4MAZ | 2026-09-03 23:56:21 | 52.09858 | 21.55660 | 121° | 84km/h | 13404m | 3.8m/s | -52.0°C | 1.9% | 160.7hPa | 0V | 00:00:00 | 00:00:00 | 00:00:00 | |
| SP3WXH-11 | 2026-09-03 23:56:06 | 52.10025 | 21.55224 | 124° | 73km/h | 13324m | 4.7m/s | -52.0°C | 1.9% | 162.7hPa | 0V | 00:00:00 | 00:00:00 | 00:00:00 | |
| SP4MAZ | 2026-09-03 23:55:59 | 52.10074 | 21.55099 | 126° | 75km/h | 13296m | 4.5m/s | -52.0°C | 1.9% | 163.3hPa | 0V | 00:00:00 | 00:00:00 | 00:00:00 | |
| SP4MAZ | 2026-09-03 23:55:39 | 52.10300 | 21.54599 | 126° | 80km/h | 13201m | 4.5m/s | -53.0°C | 2.2% | 165.8hPa | 0V | 00:00:00 | 00:00:00 | 00:00:00 | |
| SP3WXH-11 | 2026-09-03 23:55:35 | 52.10367 | 21.54446 | 130° | 75km/h | 13173m | 4.3m/s | -53.1°C | 2.2% | 166.5hPa | 0V | 00:00:00 | 00:00:00 | 00:00:00 | |
| SP4MAZ | 2026-09-03 23:55:15 | 52.10587 | 21.54049 | 141° | 93km/h | 13073m | 7.7m/s | -53.0°C | 2.1% | 169.0hPa | 0V | 00:00:00 | 00:00:00 | 00:00:00 | |
| SP3WXH-11 | 2026-09-03 23:55:03 | 52.10799 | 21.53767 | 142° | 80km/h | 12995m | 5.1m/s | -53.0°C | 2.2% | 171.3hPa | 0V | 00:00:00 | 00:00:00 | 00:00:00 | |
| SP4MAZ | 2026-09-03 23:54:55 | 52.10913 | 21.53623 | 145° | 84km/h | 12959m | 5.7m/s | -53.2°C | 2.3% | 172.2hPa | 0V | 00:00:00 | 00:00:00 | 00:00:00 | |
| SP4MAZ | 2026-09-03 23:54:35 | 52.11244 | 21.53245 | 143° | 84km/h | 12848m | 5.6m/s | -52.5°C | 2.4% | 175.1hPa | 0V | 00:00:00 | 00:00:00 | 00:00:00 | |
| SP3WXH-11 | 2026-09-03 23:54:32 | 52.11315 | 21.53167 | 146° | 86km/h | 12824m | 5.6m/s | -52.3°C | 2.4% | 175.7hPa | 0V | 00:00:00 | 00:00:00 | 00:00:00 | |
| SP4MAZ | 2026-09-03 23:54:04 | 52.11835 | 21.52592 | 142° | 100km/h | 12679m | 5.1m/s | -53.0°C | 2.8% | 179.8hPa | 0V | 00:00:00 | 00:00:00 | 00:00:00 | |
| SP3WXH-11 | 2026-09-03 23:54:01 | 52.11915 | 21.52487 | 141° | 99km/h | 12660m | 4.6m/s | -53.0°C | 2.9% | 180.3hPa | 0V | 00:00:00 | 00:00:00 | 00:00:00 | |
| SP4MAZ | 2026-09-03 23:53:44 | 52.12225 | 21.52069 | 143° | 100km/h | 12578m | 5.3m/s | -52.9°C | 3.1% | 182.5hPa | 0V | 00:00:00 | 00:00:00 | 00:00:00 | |
| SP3WXH-11 | 2026-09-03 23:53:30 | 52.12530 | 21.51677 | 145° | 100km/h | 12508m | 6.4m/s | -52.9°C | 3.3% | 184.6hPa | 0V | 00:00:00 | 00:00:00 | 00:00:00 | |
| SP4MAZ | 2026-09-03 23:53:21 | 52.12704 | 21.51462 | 141° | 110km/h | 12472m | 3.2m/s | -53.2°C | 3.8% | 185.8hPa | 0V | 00:00:00 | 00:00:00 | 00:00:00 | |
| SP4MAZ | 2026-09-03 23:53:01 | 52.13124 | 21.50891 | 141° | 113km/h | 12377m | 4.2m/s | -54.0°C | 4.9% | 188.4hPa | 0V | 00:00:00 | 00:00:00 | 00:00:00 | |
| SP3WXH-11 | 2026-09-03 23:52:59 | 52.13193 | 21.50802 | 142° | 119km/h | 12361m | 5.4m/s | -53.9°C | 5.0% | 188.9hPa | 0V | 00:00:00 | 00:00:00 | 00:00:00 | |
| SP4MAZ | 2026-09-03 23:52:29 | 52.13843 | 21.49892 | 137° | 108km/h | 12213m | 6.6m/s | -54.8°C | 7.0% | 193.3hPa | 0V | 00:00:00 | 00:00:00 | 00:00:00 | |
| SP3WXH-11 | 2026-09-03 23:52:28 | 52.13882 | 21.49835 | 139° | 104km/h | 12201m | 4.6m/s | -54.9°C | 7.1% | 193.7hPa | 0V | 00:00:00 | 00:00:00 | 00:00:00 | |
| SP4MAZ | 2026-09-03 23:52:09 | 52.14277 | 21.49295 | 140° | 122km/h | 12112m | 5.7m/s | -55.3°C | 8.5% | 196.5hPa | 0V | 00:00:00 | 00:00:00 | 00:00:00 | |
| SP3WXH-11 | 2026-09-03 23:51:57 | 52.14569 | 21.48875 | 139° | 117km/h | 12047m | 5.7m/s | -55.4°C | 10.0% | 198.3hPa | 0V | 00:00:00 | 00:00:00 | 00:00:00 | |
| SP4MAZ | 2026-09-03 23:51:49 | 52.14736 | 21.48650 | 141° | 126km/h | 12016m | 5.4m/s | -55.3°C | 11.4% | 199.3hPa | 0V | 00:00:00 | 00:00:00 | 00:00:00 | |
| SP3WXH-11 | 2026-09-03 23:51:26 | 52.15351 | 21.47881 | 142° | 133km/h | 11899m | 4.8m/s | -55.2°C | 16.2% | 203.0hPa | 0V | 00:00:00 | 00:00:00 | 00:00:00 | |
| SP4MAZ | 2026-09-03 23:51:08 | 52.15812 | 21.47285 | 142° | 150km/h | 11821m | 3.2m/s | -56.4°C | 22.0% | 205.5hPa | 0V | 00:00:00 | 00:00:00 | 00:00:00 | |
| SP3WXH-11 | 2026-09-03 23:50:55 | 52.16234 | 21.46813 | 145° | 144km/h | 11755m | 5.9m/s | -56.9°C | 28.3% | 207.6hPa | 0V | 00:00:00 | 00:00:00 | 00:00:00 | |
| SP3WXH-11 | 2026-09-03 23:50:24 | 52.17270 | 21.45852 | 152° | 162km/h | 11602m | 6.8m/s | -57.1°C | 40.0% | 213.1hPa | 0V | 00:00:00 | 00:00:00 | 00:00:00 | |
| SP4MAZ | 2026-09-03 23:50:16 | 52.17525 | 21.45626 | 154° | 168km/h | 11554m | 4.6m/s | -56.9°C | 42.9% | 214.4hPa | 0V | 00:00:00 | 00:00:00 | 00:00:00 | |
| SP3WXH-11 | 2026-09-03 23:49:53 | 52.18473 | 21.44862 | 154° | 195km/h | 11432m | 4.7m/s | -56.4°C | 53.7% | 218.5hPa | 0V | 00:00:00 | 00:00:00 | 00:00:00 | |
| SP4MAZ | 2026-09-03 23:49:34 | 52.19229 | 21.44300 | 157° | 184km/h | 11343m | 4.3m/s | -56.0°C | 58.0% | 221.8hPa | 0V | 00:00:00 | 00:00:00 | 00:00:00 | |
| SP3WXH-11 | 2026-09-03 23:49:22 | 52.19793 | 21.43896 | 155° | 188km/h | 11277m | 4.1m/s | -56.2°C | 60.1% | 223.9hPa | 0V | 00:00:00 | 00:00:00 | 00:00:00 | |
| SP4MAZ | 2026-09-03 23:49:02 | 52.20645 | 21.43262 | 155° | 201km/h | 11195m | 5.5m/s | -55.4°C | 61.6% | 227.0hPa | 0V | 00:00:00 | 00:00:00 | 00:00:00 | |
| SP3WXH-11 | 2026-09-03 23:48:51 | 52.21192 | 21.42857 | 155° | 199km/h | 11127m | 5.1m/s | -54.9°C | 59.9% | 229.1hPa | 0V | 00:00:00 | 00:00:00 | 00:00:00 | |
| SP3WXH-11 | 2026-09-03 23:48:20 | 52.22589 | 21.41785 | 153° | 199km/h | 10977m | 5.3m/s | -53.6°C | 60.2% | 234.7hPa | 0V | 00:00:00 | 00:00:00 | 00:00:00 | |
| SP4MAZ | 2026-09-03 23:48:03 | 52.23303 | 21.41196 | 151° | 203km/h | 10890m | 5.6m/s | -52.8°C | 60.8% | 237.7hPa | 0V | 00:00:00 | 00:00:00 | 00:00:00 | |
| SP3WXH-11 | 2026-09-03 23:47:49 | 52.23977 | 21.40620 | 152° | 201km/h | 10811m | 5.0m/s | -52.2°C | -1.0% | 240.7hPa | 0V | 00:00:00 | 00:00:00 | 00:00:00 | |
| SP4MAZ | 2026-09-03 23:47:32 | 52.24710 | 21.39993 | 152° | 201km/h | 10724m | 5.2m/s | -51.5°C | 62.9% | 243.8hPa | 0V | 00:00:00 | 00:00:00 | 00:00:00 | |
| SP3WXH-11 | 2026-09-03 23:47:18 | 52.25399 | 21.39396 | 150° | 199km/h | 10644m | 5.7m/s | 0°C | -1.0% | -1.0hPa | 0V | 00:00:00 | 00:00:00 | 00:00:00 | |
| SP4MAZ | 2026-09-03 23:47:11 | 52.25669 | 21.39159 | 153° | 210km/h | 10613m | 5.5m/s | -50.5°C | 61.0% | 247.9hPa | 0V | 00:00:00 | 00:00:00 | 00:00:00 | |
| SP4MAZ | 2026-09-03 23:46:50 | 52.26630 | 21.38290 | 155° | 201km/h | 10505m | 5.5m/s | -49.4°C | 59.4% | 252.1hPa | 0V | 00:00:00 | 00:00:00 | 00:00:00 | |
| SP4MAZ | 2026-09-03 23:46:27 | 52.27664 | 21.37356 | 152° | 206km/h | 10382m | 6.6m/s | -48.3°C | 60.4% | 257.0hPa | 0V | 00:00:00 | 00:00:00 | 00:00:00 | |
| SP4MAZ | 2026-09-03 23:46:05 | 52.28685 | 21.36432 | 153° | 223km/h | 10269m | 3.4m/s | -47.4°C | 62.8% | 261.4hPa | 0V | 00:00:00 | 00:00:00 | 00:00:00 | |
| SP4MAZ | 2026-09-03 23:45:44 | 52.29633 | 21.35527 | 151° | 214km/h | 10156m | 6.0m/s | -46.8°C | 64.1% | 265.9hPa | 0V | 00:00:00 | 00:00:00 | 00:00:00 | |
| SP4MAZ | 2026-09-03 23:45:13 | 52.30911 | 21.34253 | 149° | 168km/h | 9956m | 6.7m/s | -45.5°C | 67.8% | 274.1hPa | 0V | 00:00:00 | 00:00:00 | 00:00:00 | |
| SP4MAZ | 2026-09-03 23:44:52 | 52.31695 | 21.33448 | 151° | 168km/h | 9824m | 7.5m/s | -44.7°C | 62.6% | 279.6hPa | 0V | 00:00:00 | 00:00:00 | 00:00:00 | |
| SP4MAZ | 2026-09-03 23:44:30 | 52.32493 | 21.32644 | 151° | 155km/h | 9668m | 7.5m/s | -43.7°C | 54.0% | 285.9hPa | 0V | 00:00:00 | 00:00:00 | 00:00:00 | |
| SP4MAZ | 2026-09-03 23:44:09 | 52.33096 | 21.31947 | 150° | 135km/h | 9527m | 4.9m/s | -43.0°C | 44.2% | 292.0hPa | 0V | 00:00:00 | 00:00:00 | 00:00:00 | |
| SP4MAZ | 2026-09-03 23:43:37 | 52.33955 | 21.30869 | 142° | 135km/h | 9327m | 5.4m/s | -41.9°C | 21.9% | 300.7hPa | 0V | 00:00:00 | 00:00:00 | 00:00:00 | |
| SP4MAZ | 2026-09-03 23:43:15 | 52.34460 | 21.30166 | 142° | 119km/h | 9199m | 5.9m/s | -41.2°C | 17.3% | 306.4hPa | 0V | 00:00:00 | 00:00:00 | 00:00:00 | |
| SP4MAZ | 2026-09-03 23:42:55 | 52.34918 | 21.29521 | 137° | 115km/h | 9094m | 8.6m/s | -40.6°C | 18.7% | 311.4hPa | 0V | 00:00:00 | 00:00:00 | 00:00:00 | |
| SP4MAZ | 2026-09-03 23:42:34 | 52.35322 | 21.28833 | 139° | 111km/h | 8984m | 6.5m/s | -40.0°C | 20.7% | 316.5hPa | 0V | 00:00:00 | 00:00:00 | 00:00:00 | |
| SP4MAZ | 2026-09-03 23:42:14 | 52.35729 | 21.28184 | 134° | 99km/h | 8876m | 4.3m/s | -39.3°C | 15.8% | 321.5hPa | 0V | 00:00:00 | 00:00:00 | 00:00:00 | |
| SP4MAZ | 2026-09-03 23:41:43 | 52.36241 | 21.27228 | 126° | 106km/h | 8703m | 8.0m/s | -38.4°C | 13.2% | 329.6hPa | 0V | 00:00:00 | 00:00:00 | 00:00:00 | |
| SP4MAZ | 2026-09-03 23:41:22 | 52.36546 | 21.26556 | 121° | 88km/h | 8598m | 3.9m/s | -37.8°C | 14.2% | 334.7hPa | 0V | 00:00:00 | 00:00:00 | 00:00:00 | |
| SP4MAZ | 2026-09-03 23:41:00 | 52.36894 | 21.25899 | 128° | 89km/h | 8477m | 5.9m/s | -37.1°C | 14.6% | 340.7hPa | 0V | 00:00:00 | 00:00:00 | 00:00:00 | |
| SP4MAZ | 2026-09-03 23:40:39 | 52.37202 | 21.25315 | 128° | 99km/h | 8380m | 7.5m/s | -36.4°C | 0% | 345.6hPa | 0V | 00:00:00 | 00:00:00 | 00:00:00 | |
| SP4MAZ | 2026-09-03 23:39:49 | 52.37941 | 21.23986 | 130° | 89km/h | 8098m | 6.7m/s | -33.9°C | 0% | 359.7hPa | 0V | 00:00:00 | 00:00:00 | 00:00:00 | |
| SP4MAZ | 2026-09-03 23:39:28 | 52.38236 | 21.23427 | 134° | 86km/h | 7974m | 3.7m/s | -33.0°C | 0% | 365.8hPa | 0V | 00:00:00 | 00:00:00 | 00:00:00 | |
| SP4MAZ | 2026-09-03 23:39:08 | 52.38519 | 21.22845 | 129° | 93km/h | 7859m | 6.1m/s | 0°C | 0% | 371.9hPa | 0V | 00:00:00 | 00:00:00 | 00:00:00 | |
| SP4MAZ | 2026-09-03 23:38:45 | 52.38860 | 21.22210 | 138° | 80km/h | 7739m | 7.9m/s | -31.1°C | 0% | 0hPa | 0V | 00:00:00 | 00:00:00 | 00:00:00 | |
| SP4MAZ | 2026-09-03 23:38:14 | 52.39235 | 21.21403 | 115° | 78km/h | 7563m | 4.4m/s | 0°C | 0% | 0hPa | 0V | 00:00:00 | 00:00:00 | 00:00:00 | |
| SP4MAZ | 2026-09-03 23:37:52 | 52.39477 | 21.20815 | 133° | 75km/h | 7454m | 6.4m/s | -28.9°C | 0% | 0hPa | 0V | 00:00:00 | 00:00:00 | 00:00:00 | |
| SP4MAZ | 2026-09-03 23:37:33 | 52.39709 | 21.20315 | 124° | 91km/h | 7338m | 6.9m/s | -28.6°C | 0% | 0hPa | 0V | 00:00:00 | 00:00:00 | 00:00:00 | |
| SP4MAZ | 2026-09-03 23:37:02 | 52.39948 | 21.19595 | 115° | 77km/h | 7179m | 5.4m/s | 0°C | 0% | 0hPa | 0V | 00:00:00 | 00:00:00 | 00:00:00 | |
| SP4MAZ | 2026-09-03 23:36:42 | 52.40075 | 21.19108 | 110° | 62km/h | 7068m | 4.0m/s | 0°C | 0% | 0hPa | 0V | 00:00:00 | 00:00:00 | 00:00:00 | |
| SP4MAZ | 2026-09-03 23:36:20 | 52.40217 | 21.18501 | 98° | 62km/h | 6933m | 4.2m/s | 0°C | 0% | 0hPa | 0V | 00:00:00 | 00:00:00 | 00:00:00 | |
| SP4MAZ | 2026-09-03 23:35:49 | 52.40419 | 21.17778 | 100° | 51km/h | 6768m | 6.6m/s | 0°C | 0% | 0hPa | 0V | 00:00:00 | 00:00:00 | 00:00:00 | |
| SP4MAZ | 2026-09-03 23:35:28 | 52.40481 | 21.17334 | 92° | 53km/h | 6646m | 4.6m/s | 0°C | 0% | 0hPa | 0V | 00:00:00 | 00:00:00 | 00:00:00 | |
| SP4MAZ | 2026-09-03 23:35:08 | 52.40545 | 21.16833 | 102° | 53km/h | 6549m | 6.0m/s | 0°C | 0% | 0hPa | 0V | 00:00:00 | 00:00:00 | 00:00:00 | |
| SP4MAZ | 2026-09-03 23:34:45 | 52.40541 | 21.16257 | 104° | 51km/h | 6414m | 6.3m/s | 0°C | 0% | 0hPa | 0V | 00:00:00 | 00:00:00 | 00:00:00 | |
| SP4MAZ | 2026-09-03 23:34:24 | 52.40558 | 21.15836 | 89° | 62km/h | 6308m | 5.1m/s | 0°C | 0% | 0hPa | 0V | 00:00:00 | 00:00:00 | 00:00:00 | |
| SP4MAZ | 2026-09-03 23:33:53 | 52.40625 | 21.15153 | 102° | 62km/h | 6138m | 6.7m/s | 0°C | 0% | 0hPa | 0V | 00:00:00 | 00:00:00 | 00:00:00 | |
| SP4MAZ | 2026-09-03 23:33:30 | 52.40686 | 21.14601 | 90° | 58km/h | 6014m | 5.1m/s | 0°C | 0% | 0hPa | 0V | 00:00:00 | 00:00:00 | 00:00:00 | |
| SP4MAZ | 2026-09-03 23:33:10 | 52.40707 | 21.14142 | 96° | 44km/h | 5907m | 5.6m/s | 0°C | 0% | 0hPa | 0V | 00:00:00 | 00:00:00 | 00:00:00 | |
| SP4MAZ | 2026-09-03 23:32:50 | 52.40745 | 21.13734 | 108° | 37km/h | 5790m | 4.9m/s | 0°C | 0% | 0hPa | 0V | 00:00:00 | 00:00:00 | 00:00:00 | |
| SP4MAZ | 2026-09-03 23:32:30 | 52.40828 | 21.13357 | 109° | 37km/h | 5689m | 5.1m/s | 0°C | 0% | 0hPa | 0V | 00:00:00 | 00:00:00 | 00:00:00 | |
| SP4MAZ | 2026-09-03 23:32:09 | 52.40926 | 21.12974 | 124° | 47km/h | 5567m | 6.8m/s | 0°C | 0% | 0hPa | 0V | 00:00:00 | 00:00:00 | 00:00:00 | |
| SP4MAZ | 2026-09-03 23:31:36 | 52.41052 | 21.12322 | 117° | 55km/h | 5390m | 5.1m/s | 0°C | 0% | 0hPa | 0V | 00:00:00 | 00:00:00 | 00:00:00 | |
| SP4MAZ | 2026-09-03 23:31:15 | 52.41107 | 21.11945 | 95° | 38km/h | 5278m | 8.0m/s | 0°C | 0% | 0hPa | 0V | 00:00:00 | 00:00:00 | 00:00:00 | |
| SP4MAZ | 2026-09-03 23:30:51 | 52.41175 | 21.11506 | 105° | 60km/h | 5153m | 4.7m/s | 0°C | 0% | 0hPa | 0V | 00:00:00 | 00:00:00 | 00:00:00 | |
| SP4MAZ | 2026-09-03 23:30:31 | 52.41227 | 21.11163 | 106° | 38km/h | 5045m | 5.0m/s | 0°C | 0% | 0hPa | 0V | 00:00:00 | 00:00:00 | 00:00:00 | |
| SP4MAZ | 2026-09-03 23:30:00 | 52.41269 | 21.10614 | 86° | 44km/h | 4860m | 6.2m/s | 0°C | 0% | 0hPa | 0V | 00:00:00 | 00:00:00 | 00:00:00 | |
| SP4MAZ | 2026-09-03 23:29:39 | 52.41287 | 21.10258 | 76° | 53km/h | 4735m | 4.2m/s | 0°C | 0% | 0hPa | 0V | 00:00:00 | 00:00:00 | 00:00:00 | |
| SP4MAZ | 2026-09-03 23:29:17 | 52.41288 | 21.09890 | 88° | 40km/h | 4619m | 5.3m/s | 0°C | 0% | 0hPa | 0V | 00:00:00 | 00:00:00 | 00:00:00 | |
| SP4MAZ | 2026-09-03 23:28:58 | 52.41282 | 21.09563 | 75° | 33km/h | 4506m | 5.1m/s | 0°C | 0% | 0hPa | 0V | 00:00:00 | 00:00:00 | 00:00:00 | |
| SP4MAZ | 2026-09-03 23:28:36 | 52.41292 | 21.09187 | 96° | 51km/h | 4392m | 4.7m/s | 0°C | 0% | 0hPa | 0V | 00:00:00 | 00:00:00 | 00:00:00 | |
| SP4MAZ | 2026-09-03 23:27:54 | 52.41269 | 21.08384 | 87° | 57km/h | 4161m | 6.3m/s | 0°C | 0% | 0hPa | 0V | 00:00:00 | 00:00:00 | 00:00:00 | |
| SP4MAZ | 2026-09-03 23:27:32 | 52.41256 | 21.08007 | 77° | 47km/h | 4032m | 5.7m/s | 0°C | 0% | 0hPa | 0V | 00:00:00 | 00:00:00 | 00:00:00 | |
| SP4MAZ | 2026-09-03 23:27:11 | 52.41237 | 21.07642 | 100° | 42km/h | 3914m | 5.1m/s | 0°C | 0% | 0hPa | 0V | 00:00:00 | 00:00:00 | 00:00:00 |